Time;durP1;ratioP1;P1;durP2;ratioP2;P2;SDS_P1;SDS_P2;PMS_P1;PMS_P2;Temp;Humidity;BMP_temperature;BMP_pressure;BME280_temperature;BME280_humidity;BME280_pressure;Samples;Min_cycle;Max_cycle;Signal;HPM_P1;HPM_P2
2021/07/25 00:01:30;;;;;;;14.03;12.27;;;;;;;21.89;66.26;100813.91;3581347;40;20221;-77
2021/07/25 00:03:56;;;;;;;15.30;13.77;;;;;;;22.02;65.37;100815.28;3590540;40;20256;-77
2021/07/25 00:06:21;;;;;;;17.37;13.77;;;;;;;21.99;64.87;100815.38;3590448;40;20291;-77
2021/07/25 00:08:46;;;;;;;15.17;12.53;;;;;;;21.83;65.58;100815.84;3581026;40;20508;-75
2021/07/25 00:11:13;;;;;;;14.50;13.00;;;;;;;21.93;65.36;100812.09;3590293;40;20233;-77
2021/07/25 00:13:40;;;;;;;15.43;12.47;;;;;;;21.99;65.50;100815.38;3590448;40;20385;-77
2021/07/25 00:16:08;;;;;;;17.43;13.30;;;;;;;22.23;64.88;100814.69;3588951;40;20237;-77
2021/07/25 00:18:34;;;;;;;17.03;13.17;;;;;;;22.34;64.06;100806.56;3571880;40;20228;-77
2021/07/25 00:21:00;;;;;;;16.35;13.90;;;;;;;22.14;64.81;100808.88;3580891;40;20210;-77
2021/07/25 00:23:27;;;;;;;15.40;13.00;;;;;;;21.88;65.94;100806.16;3585634;40;20248;-78
2021/07/25 00:25:56;;;;;;;12.97;11.67;;;;;;;21.82;65.89;100812.38;3591492;40;20229;-77
2021/07/25 00:28:21;;;;;;;14.23;12.23;;;;;;;21.78;66.03;100807.25;3590864;40;20233;-77
2021/07/25 00:30:46;;;;;;;15.97;12.67;;;;;;;21.99;64.77;100817.13;3591309;40;20222;-78
2021/07/25 00:33:12;;;;;;;14.70;13.17;;;;;;;21.90;64.84;100812.16;3591867;40;20250;-77
2021/07/25 00:35:38;;;;;;;13.13;11.33;;;;;;;21.71;65.59;100810.94;3584522;40;20244;-78
2021/07/25 00:38:03;;;;;;;13.80;12.20;;;;;;;21.81;65.53;100821.09;3581218;40;20240;-77
2021/07/25 00:40:41;;;;;;;13.03;11.67;;;;;;;21.69;66.38;100813.59;3580263;40;20224;-78
2021/07/25 00:43:06;;;;;;;15.93;12.83;;;;;;;21.76;65.69;100807.34;3571858;40;20238;-77
2021/07/25 00:45:31;;;;;;;14.83;12.93;;;;;;;21.74;65.91;100808.28;3581591;40;20221;-77
2021/07/25 00:47:57;;;;;;;23.03;12.53;;;;;;;21.67;66.23;100809.28;3581088;40;20293;-77
2021/07/25 00:50:23;;;;;;;12.20;10.93;;;;;;;21.56;66.13;100804.34;3579870;40;20592;-77
2021/07/25 00:52:49;;;;;;;11.70;10.53;;;;;;;21.47;66.21;100803.75;3579871;40;20465;-77
2021/07/25 00:55:14;;;;;;;14.27;11.13;;;;;;;21.42;66.25;100801.22;3579836;40;20689;-77
2021/07/25 00:57:40;;;;;;;16.87;12.93;;;;;;;21.43;67.00;100797.72;3584476;40;20222;-77
2021/07/25 01:00:07;;;;;;;16.23;12.43;;;;;;;21.40;67.00;100796.97;3580490;40;20230;-77
2021/07/25 01:02:40;;;;;;;14.97;12.67;;;;;;;21.74;65.49;100801.28;3580503;40;20213;-77
2021/07/25 01:05:15;;;;;;;14.97;12.67;;;;;;;21.54;66.23;100793.13;3590275;40;20233;-77
2021/07/25 01:07:53;;;;;;;14.27;12.57;;;;;;;21.41;67.01;100783.91;3590256;40;20265;-77
2021/07/25 01:10:25;;;;;;;15.67;13.93;;;;;;;21.46;65.83;100791.63;3590363;40;20237;-78
2021/07/25 01:12:57;;;;;;;17.83;13.33;;;;;;;21.29;67.03;100784.19;3590129;40;20612;-77
2021/07/25 01:15:26;;;;;;;14.73;12.13;;;;;;;21.38;66.54;100786.56;3589448;40;20252;-78
2021/07/25 01:17:54;;;;;;;14.93;13.23;;;;;;;21.26;66.92;100786.91;3590357;40;20533;-76
2021/07/25 01:20:20;;;;;;;13.30;11.90;;;;;;;21.22;67.00;100793.06;3590262;40;20268;-77
2021/07/25 01:22:48;;;;;;;13.13;11.83;;;;;;;21.22;66.98;100792.22;3581091;40;20249;-77
2021/07/25 01:25:15;;;;;;;15.90;12.93;;;;;;;21.45;66.46;100790.75;3590052;40;20209;-77
2021/07/25 01:28:01;;;;;;;14.27;12.88;;;;;;;21.19;67.74;100784.47;3590189;40;20290;-77
2021/07/25 01:30:29;;;;;;;13.70;12.40;;;;;;;21.07;68.12;100795.19;3580749;40;20222;-77
2021/07/25 01:32:59;;;;;;;13.93;12.33;;;;;;;21.00;68.18;100793.66;3580560;40;20626;-78
2021/07/25 01:35:25;;;;;;;15.30;13.43;;;;;;;20.92;68.65;100788.59;3580288;40;20275;-77
2021/07/25 01:37:52;;;;;;;13.53;12.13;;;;;;;21.14;67.87;100788.97;3580257;40;20230;-77
2021/07/25 01:40:22;;;;;;;14.73;13.10;;;;;;;21.03;68.16;100789.22;3571396;40;20218;-78
2021/07/25 01:42:47;;;;;;;14.50;13.03;;;;;;;20.90;68.79;100795.59;3581438;40;20263;-78
2021/07/25 01:45:13;;;;;;;14.73;12.13;;;;;;;20.85;68.72;100791.34;3571339;40;20592;-77
2021/07/25 01:47:39;;;;;;;17.40;15.07;;;;;;;20.82;69.29;100784.47;3582725;40;20275;-77
2021/07/25 01:50:06;;;;;;;13.50;12.10;;;;;;;20.81;68.87;100780.16;3578365;40;20218;-77
2021/07/25 01:52:31;;;;;;;14.93;12.90;;;;;;;20.78;69.24;100782.81;3579626;40;20238;-77
2021/07/25 01:54:56;;;;;;;12.97;11.60;;;;;;;20.73;69.30;100787.28;3581432;40;20223;-77
2021/07/25 01:57:22;;;;;;;14.17;12.77;;;;;;;20.79;69.17;100794.97;3585917;40;20225;-77
2021/07/25 01:59:47;;;;;;;13.43;11.73;;;;;;;20.74;68.96;100796.81;3569053;40;20663;-77
2021/07/25 02:02:12;;;;;;;11.73;10.53;;;;;;;20.74;68.93;100806.38;3579914;40;20233;-77
2021/07/25 02:04:38;;;;;;;13.27;11.97;;;;;;;20.76;68.74;100804.56;3579800;40;20647;-77
2021/07/25 02:07:04;;;;;;;12.00;10.47;;;;;;;20.74;69.16;100811.56;3579570;40;20222;-78
2021/07/25 02:09:33;;;;;;;11.43;10.20;;;;;;;20.73;69.21;100813.31;3571161;40;20238;-77
2021/07/25 02:11:58;;;;;;;13.07;11.77;;;;;;;20.70;69.15;100816.00;3580105;40;20241;-77
2021/07/25 02:14:23;;;;;;;12.87;11.57;;;;;;;20.66;69.80;100821.28;3569960;40;20253;-77
2021/07/25 02:16:49;;;;;;;11.97;10.77;;;;;;;20.65;70.16;100832.59;3579789;40;20229;-77
2021/07/25 02:19:14;;;;;;;13.27;11.47;;;;;;;20.64;70.09;100836.09;3570059;40;20612;-77
2021/07/25 02:21:39;;;;;;;14.60;12.60;;;;;;;20.68;69.74;100825.56;3580065;40;20226;-77
2021/07/25 02:24:04;;;;;;;16.87;13.17;;;;;;;20.61;70.32;100826.59;3582529;40;20245;-77
2021/07/25 02:26:30;;;;;;;10.63;9.53;;;;;;;20.61;70.32;100825.75;3589730;40;20252;-77
2021/07/25 02:28:55;;;;;;;13.30;11.17;;;;;;;20.56;70.61;100828.47;3580211;40;20241;-77
2021/07/25 02:31:20;;;;;;;17.50;11.63;;;;;;;20.57;70.57;100830.16;3589193;40;20215;-77
2021/07/25 02:33:45;;;;;;;13.67;12.20;;;;;;;20.53;70.92;100830.25;3580039;40;20295;-77
2021/07/25 02:36:11;;;;;;;11.17;10.07;;;;;;;20.49;71.18;100828.63;3589732;40;20603;-77
2021/07/25 02:38:36;;;;;;;15.13;12.97;;;;;;;20.48;71.50;100826.88;3588829;40;20234;-77
2021/07/25 02:41:01;;;;;;;13.67;11.60;;;;;;;20.46;71.63;100839.91;3590011;40;20235;-77
2021/07/25 02:43:26;;;;;;;14.93;12.97;;;;;;;20.43;72.39;100846.94;3589888;40;20515;-77
2021/07/25 02:45:52;;;;;;;16.83;14.70;;;;;;;20.37;72.38;100841.88;3589719;40;20275;-78
2021/07/25 02:48:17;;;;;;;15.07;13.60;;;;;;;20.35;72.33;100834.09;3589767;40;20214;-77
2021/07/25 02:50:42;;;;;;;19.30;16.53;;;;;;;20.31;72.68;100840.25;3589402;40;20595;-77
2021/07/25 02:53:07;;;;;;;18.50;14.80;;;;;;;20.34;72.49;100845.41;3580950;40;20252;-77
2021/07/25 02:55:33;;;;;;;17.57;15.63;;;;;;;20.33;72.40;100845.41;3580152;40;20222;-78
2021/07/25 02:57:58;;;;;;;19.37;17.20;;;;;;;20.28;73.20;100842.06;3582616;40;20310;-78
2021/07/25 03:00:23;;;;;;;19.77;17.67;;;;;;;20.23;73.50;100854.31;3578689;40;20230;-77
2021/07/25 03:02:48;;;;;;;18.93;16.70;;;;;;;20.20;73.15;100851.75;3578800;40;20256;-77
2021/07/25 03:05:14;;;;;;;16.47;14.67;;;;;;;20.25;72.78;100860.31;3583197;40;20232;-77
2021/07/25 03:07:39;;;;;;;16.83;15.00;;;;;;;20.20;73.28;100865.63;3589635;40;20237;-77
2021/07/25 03:10:05;;;;;;;17.53;15.33;;;;;;;20.39;72.84;100873.91;3589236;40;20599;-77
2021/07/25 03:12:30;;;;;;;15.60;14.07;;;;;;;20.31;73.40;100870.63;3588899;40;20326;-77
2021/07/25 03:14:55;;;;;;;14.57;12.90;;;;;;;20.25;73.23;100876.78;3585792;40;20230;-77
2021/07/25 03:17:21;;;;;;;19.47;16.50;;;;;;;20.19;73.73;100882.13;3584128;40;20619;-77
2021/07/25 03:19:46;;;;;;;18.60;16.57;;;;;;;20.15;73.89;100884.78;3580653;40;20229;-77
2021/07/25 03:22:11;;;;;;;20.80;16.97;;;;;;;20.19;74.07;100883.84;3580636;40;20226;-77
2021/07/25 03:24:37;;;;;;;17.97;16.10;;;;;;;20.14;73.79;100877.88;3572497;40;20237;-77
2021/07/25 03:27:03;;;;;;;18.80;16.80;;;;;;;20.10;73.99;100866.69;3583515;40;20226;-77
2021/07/25 03:29:28;;;;;;;17.27;15.37;;;;;;;20.04;74.18;100874.56;3586604;40;20546;-78
2021/07/25 03:31:53;;;;;;;18.00;14.23;;;;;;;20.10;74.22;100866.69;3572708;40;20530;-77
2021/07/25 03:34:19;;;;;;;18.53;16.33;;;;;;;20.12;74.23;100882.25;3590553;40;20956;-77
2021/07/25 03:36:45;;;;;;;11.83;10.60;;;;;;;20.12;74.08;100890.91;3590965;40;20217;-77
2021/07/25 03:39:13;;;;;;;16.50;14.70;;;;;;;20.16;74.04;100886.50;3580969;40;20260;-77
2021/07/25 03:41:39;;;;;;;19.17;17.17;;;;;;;20.06;74.49;100885.81;3591003;40;20231;-77
2021/07/25 03:44:04;;;;;;;20.67;17.57;;;;;;;19.98;74.67;100886.81;3579883;40;20248;-78
2021/07/25 03:46:30;;;;;;;23.33;17.53;;;;;;;19.90;75.10;100884.34;3580474;40;20486;-77
2021/07/25 03:48:56;;;;;;;19.73;17.63;;;;;;;19.84;74.97;100892.25;3571321;40;20240;-78
2021/07/25 03:51:21;;;;;;;19.67;17.27;;;;;;;19.81;75.06;100891.47;3580854;40;20222;-77
2021/07/25 03:53:46;;;;;;;18.77;16.90;;;;;;;19.75;75.33;100889.81;3580157;40;20241;-77
2021/07/25 03:56:12;;;;;;;17.67;15.90;;;;;;;19.81;75.03;100894.06;3580390;40;20521;-77
2021/07/25 03:58:37;;;;;;;20.00;17.93;;;;;;;19.76;75.21;100903.69;3580516;40;20272;-77
2021/07/25 04:01:02;;;;;;;16.83;15.23;;;;;;;19.73;75.74;100907.19;3581762;40;20236;-77
2021/07/25 04:03:27;;;;;;;18.97;16.97;;;;;;;19.70;75.41;100899.44;3579518;40;20288;-77
2021/07/25 04:05:53;;;;;;;16.07;14.30;;;;;;;19.73;75.27;100906.31;3571958;40;20225;-77
2021/07/25 04:08:18;;;;;;;18.00;16.10;;;;;;;19.83;74.98;100902.69;3583693;40;20234;-77
2021/07/25 04:10:44;;;;;;;20.40;18.30;;;;;;;19.77;75.68;100913.19;3590562;40;20241;-77
2021/07/25 04:13:11;;;;;;;19.83;17.23;;;;;;;19.83;75.35;100907.88;3585460;40;20241;-77
2021/07/25 04:15:38;;;;;;;20.57;18.10;;;;;;;19.76;75.50;100911.47;3571170;40;20230;-78
2021/07/25 04:18:05;;;;;;;20.43;16.97;;;;;;;19.84;75.12;100923.47;3585892;40;20488;-77
2021/07/25 04:20:30;;;;;;;21.93;19.70;;;;;;;19.80;75.44;100916.59;3580565;40;20593;-77
2021/07/25 04:22:55;;;;;;;21.40;19.13;;;;;;;19.75;75.69;100917.53;3590295;40;20342;-77
2021/07/25 04:25:20;;;;;;;19.87;17.83;;;;;;;19.77;75.78;100918.38;3585462;40;20485;-77
2021/07/25 04:27:46;;;;;;;22.60;18.87;;;;;;;19.78;75.45;100920.97;3579745;40;20242;-77
2021/07/25 04:30:12;;;;;;;23.93;21.33;;;;;;;19.97;75.21;100922.38;3570715;40;20303;-77
2021/07/25 04:32:37;;;;;;;22.40;20.00;;;;;;;19.88;75.48;100925.13;3581831;40;20610;-76
2021/07/25 04:35:03;;;;;;;22.47;19.27;;;;;;;19.88;75.75;100930.31;3585237;40;20209;-77
2021/07/25 04:37:30;;;;;;;21.77;19.47;;;;;;;19.88;75.72;100926.84;3579882;40;20280;-77
2021/07/25 04:39:56;;;;;;;21.30;18.97;;;;;;;19.99;75.47;100922.34;3580419;40;20288;-77
2021/07/25 04:42:23;;;;;;;24.20;21.30;;;;;;;19.97;75.80;100926.69;3579952;40;20226;-78
2021/07/25 04:45:01;;;;;;;18.93;16.87;;;;;;;20.07;75.55;100933.44;3580059;40;20238;-77
2021/07/25 04:47:40;;;;;;;20.87;18.67;;;;;;;20.12;74.48;100936.84;3579954;40;20244;-77
2021/07/25 04:50:09;;;;;;;27.53;20.77;;;;;;;20.06;75.42;100939.53;3574011;40;20272;-77
2021/07/25 04:52:40;;;;;;;25.50;22.67;;;;;;;20.19;74.98;100933.28;3584341;40;20254;-77
2021/07/25 04:55:10;;;;;;;25.23;22.33;;;;;;;20.10;75.27;100939.50;3583599;40;20234;-77
2021/07/25 04:57:41;;;;;;;22.40;20.10;;;;;;;20.03;75.58;100935.25;3569821;40;20233;-77
2021/07/25 05:00:09;;;;;;;25.83;22.97;;;;;;;20.02;75.72;100932.66;3579265;40;20245;-77
2021/07/25 05:02:37;;;;;;;31.97;26.33;;;;;;;20.16;75.14;100936.78;3576496;40;20523;-77
2021/07/25 05:05:02;;;;;;;25.63;21.10;;;;;;;20.14;75.05;100941.16;3579492;40;20284;-77
2021/07/25 05:07:35;;;;;;;22.13;19.75;;;;;;;19.99;75.77;100938.78;3585221;40;20241;-77
2021/07/25 05:10:01;;;;;;;28.63;25.37;;;;;;;20.09;75.68;100944.72;3586715;40;20268;-77
2021/07/25 05:12:38;;;;;;;26.97;24.07;;;;;;;20.00;75.62;100950.06;3579889;40;20370;-77
2021/07/25 05:15:04;;;;;;;22.50;20.10;;;;;;;19.97;75.66;100952.69;3587724;40;20229;-77
2021/07/25 05:17:39;;;;;;;28.10;24.77;;;;;;;19.94;75.94;100966.59;3575345;40;20237;-77
2021/07/25 05:20:06;;;;;;;23.33;20.80;;;;;;;20.05;75.64;100963.84;3570222;40;20533;-77
2021/07/25 05:22:41;;;;;;;28.80;25.67;;;;;;;20.23;74.89;100964.38;3579522;40;20241;-77
2021/07/25 05:25:07;;;;;;;32.13;28.63;;;;;;;20.56;74.45;100960.31;3579975;40;20520;-77
2021/07/25 05:27:44;;;;;;;30.43;27.33;;;;;;;20.50;74.65;100956.06;3579662;40;20274;-77
2021/07/25 05:30:13;;;;;;;37.23;31.93;;;;;;;20.82;73.29;100958.91;3570241;40;20229;-77
2021/07/25 05:32:38;;;;;;;42.23;37.20;;;;;;;20.65;74.26;100958.41;3579383;40;20252;-77
2021/07/25 05:35:04;;;;;;;40.83;33.77;;;;;;;20.71;74.18;100955.66;3569969;40;20230;-78
2021/07/25 05:37:29;;;;;;;34.67;30.03;;;;;;;20.70;73.67;100961.75;3579914;40;20305;-78
2021/07/25 05:39:55;;;;;;;35.00;31.27;;;;;;;20.74;74.05;100966.03;3579402;40;20222;-77
2021/07/25 05:42:20;;;;;;;38.27;31.40;;;;;;;21.08;72.59;100961.84;3580536;40;20225;-77
2021/07/25 05:44:45;;;;;;;37.17;33.27;;;;;;;21.20;72.06;100965.94;3580246;40;20241;-78
2021/07/25 05:47:10;;;;;;;42.00;35.90;;;;;;;21.10;72.46;100978.28;3579814;40;20225;-78
2021/07/25 05:49:36;;;;;;;37.20;32.07;;;;;;;21.13;72.29;100967.81;3570109;40;20238;-77
2021/07/25 05:52:01;;;;;;;47.53;37.53;;;;;;;21.30;72.34;100964.84;3579402;40;20237;-78
2021/07/25 05:54:26;;;;;;;41.50;35.97;;;;;;;21.41;71.51;100976.75;3570240;40;20237;-78
2021/07/25 05:56:51;;;;;;;42.07;36.77;;;;;;;21.46;71.59;100977.50;3579493;40;20225;-78
2021/07/25 05:59:17;;;;;;;40.67;33.47;;;;;;;21.43;71.36;100969.72;3570294;40;20221;-77
2021/07/25 06:01:43;;;;;;;38.83;34.73;;;;;;;21.60;71.03;100975.44;3582295;40;20234;-77
2021/07/25 06:04:08;;;;;;;35.77;30.33;;;;;;;21.62;70.88;100973.66;3588125;40;20237;-78
2021/07/25 06:06:34;;;;;;;40.83;35.63;;;;;;;21.93;69.62;100965.97;3589753;40;20217;-77
2021/07/25 06:08:59;;;;;;;40.97;36.53;;;;;;;22.21;68.21;100969.59;3588736;40;20233;-77
2021/07/25 06:11:25;;;;;;;40.57;36.37;;;;;;;22.26;67.77;100975.56;3585773;40;20229;-77
2021/07/25 06:13:52;;;;;;;41.20;34.93;;;;;;;22.28;67.42;100976.34;3589845;40;20256;-77
2021/07/25 06:16:17;;;;;;;36.03;32.10;;;;;;;22.34;67.42;100982.28;3579821;40;20225;-77
2021/07/25 06:18:48;;;;;;;40.93;35.30;;;;;;;22.28;67.57;100985.06;3570718;40;20225;-77
2021/07/25 06:21:16;;;;;;;38.33;32.77;;;;;;;21.99;68.62;100989.28;3580169;40;20229;-77
2021/07/25 06:23:42;;;;;;;37.43;33.00;;;;;;;22.12;68.82;100986.31;3580080;40;20414;-77
2021/07/25 06:26:07;;;;;;;41.90;35.17;;;;;;;22.16;69.44;100987.13;3588036;40;20227;-78
2021/07/25 06:28:32;;;;;;;38.00;33.90;;;;;;;22.43;67.16;100986.41;3580456;40;20222;-77
2021/07/25 06:30:58;;;;;;;38.50;34.27;;;;;;;22.75;65.51;100991.63;3580605;40;20221;-78
2021/07/25 06:33:24;;;;;;;32.80;29.13;;;;;;;22.54;66.59;100991.34;3589704;40;20260;-77
2021/07/25 06:35:49;;;;;;;35.07;31.27;;;;;;;22.53;67.33;100990.53;3589415;40;20258;-77
2021/07/25 06:38:18;;;;;;;33.67;30.17;;;;;;;22.67;67.55;100995.34;3589572;40;20630;-77
2021/07/25 06:40:46;;;;;;;29.03;26.03;;;;;;;22.74;67.48;100992.53;3589685;40;20245;-77
2021/07/25 06:43:12;;;;;;;33.70;28.03;;;;;;;22.90;66.76;100991.22;3590035;40;20253;-77
2021/07/25 06:45:37;;;;;;;33.63;30.07;;;;;;;22.66;66.61;100991.03;3589819;40;20236;-78
2021/07/25 06:48:03;;;;;;;34.57;30.73;;;;;;;22.64;66.64;100985.00;3580183;40;20217;-77
2021/07/25 06:50:30;;;;;;;37.13;32.93;;;;;;;22.64;66.24;100985.00;3589579;40;20224;-77
2021/07/25 06:52:57;;;;;;;29.53;26.43;;;;;;;22.70;66.36;100990.06;3589179;40;20334;-77
2021/07/25 06:55:24;;;;;;;33.37;29.97;;;;;;;22.98;65.74;100988.38;3579838;40;20232;-77
2021/07/25 06:57:50;;;;;;;33.43;29.90;;;;;;;22.93;65.10;100993.72;3589599;40;20214;-78
2021/07/25 07:00:15;;;;;;;31.87;28.47;;;;;;;22.81;65.52;100986.25;3589487;40;20654;-77
2021/07/25 07:02:54;;;;;;;32.40;28.63;;;;;;;22.76;66.45;100990.75;3585059;40;20217;-77
2021/07/25 07:05:24;;;;;;;29.43;26.30;;;;;;;22.78;65.85;100990.72;3589052;40;20229;-77
2021/07/25 07:07:52;;;;;;;31.37;28.07;;;;;;;22.98;64.54;100984.00;3580390;40;20222;-77
2021/07/25 07:10:20;;;;;;;27.57;24.67;;;;;;;22.86;65.03;100986.09;3581632;40;20237;-77
2021/07/25 07:12:47;;;;;;;31.03;27.77;;;;;;;22.94;65.43;100986.75;3582549;40;20245;-77
2021/07/25 07:15:14;;;;;;;29.27;26.27;;;;;;;23.15;64.00;100988.75;3580549;40;20485;-77
2021/07/25 07:17:40;;;;;;;30.77;26.97;;;;;;;23.23;64.08;100986.78;3579216;40;20237;-77
2021/07/25 07:20:10;;;;;;;28.77;25.33;;;;;;;23.28;63.04;100988.34;3582937;40;20232;-77
2021/07/25 07:22:37;;;;;;;27.77;24.67;;;;;;;23.49;61.71;100986.84;3589083;40;20278;-77
2021/07/25 07:25:04;;;;;;;27.35;23.92;;;;;;;23.69;60.41;100980.09;3589911;40;20228;-77
2021/07/25 07:27:30;;;;;;;22.17;19.90;;;;;;;23.40;62.56;100987.13;3589177;40;20229;-77
2021/07/25 07:29:56;;;;;;;27.30;24.50;;;;;;;23.15;63.98;100991.38;3579789;40;20232;-77
2021/07/25 07:32:22;;;;;;;28.30;25.35;;;;;;;23.21;64.43;100988.59;3589497;40;20229;-77
2021/07/25 07:34:47;;;;;;;32.00;27.92;;;;;;;23.47;63.87;100989.50;3588345;40;20322;-77
2021/07/25 07:37:12;;;;;;;31.08;27.77;;;;;;;23.68;62.70;100988.84;3588572;40;20511;-77
2021/07/25 07:39:42;;;;;;;26.88;24.08;;;;;;;23.62;63.75;100998.66;3579146;40;20330;-78
2021/07/25 07:42:10;;;;;;;29.40;25.70;;;;;;;23.63;63.65;100989.88;3579024;40;20507;-77
2021/07/25 07:44:37;;;;;;;26.02;23.33;;;;;;;23.68;61.30;100999.31;3578972;40;20297;-77
2021/07/25 07:47:02;;;;;;;28.02;23.95;;;;;;;23.80;61.07;101001.53;3579134;40;20236;-77
2021/07/25 07:49:28;;;;;;;24.33;21.85;;;;;;;23.76;62.24;100994.66;3587900;40;20233;-77
2021/07/25 07:51:53;;;;;;;30.13;26.95;;;;;;;23.97;62.06;100998.38;3588706;40;20213;-77
2021/07/25 07:54:19;;;;;;;28.95;25.85;;;;;;;24.10;62.88;101005.81;3588763;40;20240;-77
2021/07/25 07:56:44;;;;;;;26.48;23.75;;;;;;;24.33;61.46;101005.00;3588905;40;20318;-77
2021/07/25 07:59:09;;;;;;;26.60;22.77;;;;;;;24.17;61.27;100998.59;3570827;40;20237;-77
2021/07/25 08:01:36;;;;;;;25.50;22.90;;;;;;;24.12;62.85;101000.53;3579443;40;20217;-77
2021/07/25 08:04:01;;;;;;;26.45;23.75;;;;;;;24.34;62.36;100999.72;3576721;40;20233;-77
2021/07/25 08:06:26;;;;;;;26.70;23.95;;;;;;;24.76;60.16;101008.72;3584732;40;20233;-77
2021/07/25 08:08:52;;;;;;;26.52;23.77;;;;;;;25.03;59.17;100994.63;3581768;40;20221;-77
2021/07/25 08:11:17;;;;;;;24.45;21.33;;;;;;;25.34;58.93;101004.84;3592036;40;20218;-76
2021/07/25 08:13:43;;;;;;;28.00;25.13;;;;;;;25.51;57.26;101007.66;3588133;40;20240;-77
2021/07/25 08:16:09;;;;;;;27.58;24.77;;;;;;;25.38;57.83;100998.56;3588418;40;20233;-78
2021/07/25 08:18:34;;;;;;;27.80;24.88;;;;;;;25.09;58.58;101004.88;3589942;40;20310;-77
2021/07/25 08:20:59;;;;;;;28.33;25.45;;;;;;;25.47;58.01;101006.06;3589807;40;20241;-77
2021/07/25 08:23:25;;;;;;;28.92;25.83;;;;;;;25.04;58.77;100998.94;3590274;40;20671;-77
2021/07/25 08:25:50;;;;;;;23.00;20.60;;;;;;;25.11;56.73;100995.19;3590697;40;20264;-78
2021/07/25 08:28:15;;;;;;;19.65;17.55;;;;;;;24.83;58.35;100996.25;3590465;40;20818;-78
2021/07/25 08:30:40;;;;;;;20.83;18.70;;;;;;;24.91;57.71;100989.81;3580943;40;20229;-76
2021/07/25 08:33:06;;;;;;;21.65;19.48;;;;;;;24.77;58.71;100994.72;3581178;40;20256;-77
2021/07/25 08:35:31;;;;;;;25.17;22.48;;;;;;;25.02;57.97;100990.28;3591103;40;20213;-78
2021/07/25 08:37:57;;;;;;;23.40;20.27;;;;;;;24.96;57.64;101001.00;3590835;40;20232;-78
2021/07/25 08:40:23;;;;;;;21.70;19.60;;;;;;;24.93;57.73;101008.13;3581183;40;20221;-77
2021/07/25 08:43:12;;;;;;;18.17;16.48;;;;;;;25.05;57.94;100997.19;3589242;40;20577;-78
2021/07/25 08:45:39;;;;;;;18.80;17.05;;;;;;;25.23;57.23;100997.34;3579766;40;20597;-78
2021/07/25 08:48:19;;;;;;;21.20;19.10;;;;;;;25.34;56.36;100997.84;3589917;40;20229;-77
2021/07/25 08:51:02;;;;;;;18.95;17.05;;;;;;;25.40;56.94;100992.34;3590260;40;20538;-78
2021/07/25 08:53:34;;;;;;;19.95;17.95;;;;;;;25.80;54.84;100987.22;3581375;40;20342;-78
2021/07/25 08:55:59;;;;;;;21.10;19.10;;;;;;;26.12;54.78;100991.19;3587936;40;20580;-77
2021/07/25 08:58:27;;;;;;;22.58;19.60;;;;;;;26.41;53.69;100981.16;3581074;40;20224;-78
2021/07/25 09:00:53;;;;;;;19.30;17.42;;;;;;;26.32;53.68;100988.56;3582701;40;20241;-78
2021/07/25 09:03:19;;;;;;;20.00;17.92;;;;;;;26.39;55.00;100987.38;3587696;40;20288;-78
2021/07/25 09:05:46;;;;;;;22.25;20.05;;;;;;;26.43;53.80;100992.44;3580653;40;20238;-78
2021/07/25 09:08:12;;;;;;;18.55;16.70;;;;;;;26.45;52.42;100987.97;3580746;40;20218;-78
2021/07/25 09:10:40;;;;;;;16.60;14.73;;;;;;;26.51;52.72;100986.84;3581164;40;20659;-78
2021/07/25 09:13:05;;;;;;;17.58;14.75;;;;;;;26.90;51.17;100982.50;3583224;40;20241;-78
2021/07/25 09:15:34;;;;;;;18.08;16.20;;;;;;;26.89;51.83;100981.63;3586752;40;20881;-78
2021/07/25 09:18:01;;;;;;;17.42;15.48;;;;;;;26.62;51.94;100977.59;3584878;40;20259;-77
2021/07/25 09:20:41;;;;;;;16.55;14.95;;;;;;;26.70;52.81;100974.66;3571721;40;20341;-78
2021/07/25 09:23:16;;;;;;;16.50;15.00;;;;;;;26.98;52.64;100981.19;3572454;40;20252;-78
2021/07/25 09:25:51;;;;;;;15.48;14.05;;;;;;;27.46;51.02;100976.34;3581283;40;20246;-78
2021/07/25 09:28:25;;;;;;;16.73;15.07;;;;;;;27.46;50.21;100980.72;3581409;40;20273;-78
2021/07/25 09:30:50;;;;;;;16.60;14.82;;;;;;;27.61;49.67;100986.13;3571979;40;20241;-78
2021/07/25 09:33:26;;;;;;;15.48;13.95;;;;;;;27.68;48.61;100982.25;3581443;40;20242;-79
2021/07/25 09:35:52;;;;;;;13.00;11.70;;;;;;;27.78;49.38;100982.66;3581667;40;20287;-78
2021/07/25 09:38:19;;;;;;;12.68;11.38;;;;;;;27.94;47.66;100981.00;3581719;40;20214;-78
2021/07/25 09:40:46;;;;;;;12.05;10.85;;;;;;;27.86;48.71;100976.13;3581921;40;20585;-78
2021/07/25 09:43:18;;;;;;;15.90;13.85;;;;;;;28.37;47.93;100977.94;3585241;40;20244;-79
2021/07/25 09:45:57;;;;;;;14.50;13.10;;;;;;;28.59;46.30;100976.75;3584639;40;20255;-78
2021/07/25 09:48:23;;;;;;;14.30;12.90;;;;;;;28.25;48.37;100978.53;3574308;40;20299;-79
2021/07/25 09:50:49;;;;;;;17.27;15.68;;;;;;;28.44;50.66;100980.19;3584790;40;20214;-78
2021/07/25 09:53:15;;;;;;;17.27;15.13;;;;;;;28.37;51.30;100981.38;3572074;40;20704;-79
2021/07/25 09:55:41;;;;;;;19.15;17.15;;;;;;;28.94;49.16;100981.00;3577959;40;20233;-79
2021/07/25 09:58:07;;;;;;;15.88;14.18;;;;;;;28.80;48.27;100967.72;3591541;40;20569;-78
2021/07/25 10:00:44;;;;;;;15.93;14.38;;;;;;;29.07;47.32;100978.59;3591742;40;20233;-78
2021/07/25 10:03:21;;;;;;;15.30;13.70;;;;;;;29.29;46.14;100973.84;3582073;40;20248;-78
2021/07/25 10:05:46;;;;;;;12.77;11.52;;;;;;;29.27;46.54;100976.56;3582650;40;20602;-78
2021/07/25 10:08:19;;;;;;;14.60;13.20;;;;;;;29.23;45.08;100982.06;3592065;40;20233;-78
2021/07/25 10:10:46;;;;;;;13.13;11.68;;;;;;;29.31;45.32;100978.09;3591675;40;20229;-78
2021/07/25 10:13:33;;;;;;;12.55;11.32;;;;;;;29.26;43.52;100974.88;3591566;40;20251;-78
2021/07/25 10:15:59;;;;;;;12.75;11.52;;;;;;;28.97;45.05;100972.09;3590603;40;20288;-79
2021/07/25 10:18:26;;;;;;;14.32;12.93;;;;;;;29.16;43.79;100978.09;3588516;40;20218;-78
2021/07/25 10:20:57;;;;;;;13.52;12.23;;;;;;;28.70;44.47;100981.47;3571004;40;20241;-78
2021/07/25 10:23:31;;;;;;;11.55;10.55;;;;;;;28.66;44.48;100978.16;3581356;40;20662;-78
2021/07/25 10:26:00;;;;;;;11.27;10.13;;;;;;;28.93;44.60;100968.72;3580934;40;20230;-78
2021/07/25 10:28:28;;;;;;;11.35;10.25;;;;;;;28.89;45.48;100974.28;3582108;40;20241;-79
2021/07/25 10:30:53;;;;;;;10.18;9.23;;;;;;;29.00;42.25;100971.94;3572214;40;20242;-77
2021/07/25 10:33:19;;;;;;;9.88;8.88;;;;;;;29.17;42.80;100967.47;3576867;40;20334;-78
2021/07/25 10:35:46;;;;;;;10.50;9.27;;;;;;;29.13;41.81;100972.97;3580941;40;20234;-78
2021/07/25 10:38:12;;;;;;;11.05;10.05;;;;;;;29.25;42.66;100969.66;3572184;40;20230;-79
2021/07/25 10:40:38;;;;;;;13.85;12.55;;;;;;;29.48;43.96;100970.06;3590914;40;20243;-78
2021/07/25 10:43:06;;;;;;;12.90;11.70;;;;;;;29.57;45.16;100966.09;3590513;40;20256;-78
2021/07/25 10:45:34;;;;;;;14.02;12.73;;;;;;;29.33;44.20;100970.09;3582026;40;20232;-78
2021/07/25 10:48:15;;;;;;;12.90;11.70;;;;;;;29.34;45.01;100967.34;3581719;40;20568;-78
2021/07/25 10:50:41;;;;;;;14.43;10.98;;;;;;;29.50;45.91;100960.28;3591070;40;20686;-78
2021/07/25 10:53:06;;;;;;;11.65;10.55;;;;;;;29.69;44.83;100955.69;3581617;40;20232;-78
2021/07/25 10:55:35;;;;;;;11.48;10.38;;;;;;;30.08;43.45;100963.09;3591428;40;20229;-78
2021/07/25 10:58:04;;;;;;;12.07;10.88;;;;;;;30.39;43.20;100960.38;3581422;40;20233;-78
2021/07/25 11:00:51;;;;;;;13.85;12.45;;;;;;;30.23;44.01;100958.69;3591002;40;20235;-78
2021/07/25 11:03:29;;;;;;;12.63;11.35;;;;;;;30.23;45.09;100958.69;3581526;40;20240;-78
2021/07/25 11:06:07;;;;;;;11.57;10.48;;;;;;;30.43;44.07;100956.56;3582829;40;20240;-79
2021/07/25 11:08:33;;;;;;;12.23;11.00;;;;;;;30.75;41.86;100957.28;3572499;40;20230;-78
2021/07/25 11:11:00;;;;;;;11.52;10.48;;;;;;;30.83;41.12;100955.84;3590353;40;20232;-78